Aérodrome :
LOGIN :

S'inscrire | Disclaimer

   EN    FR    IT 

 










Légende :    VFR   VFR Marginal   IFR   IFR Intensif   IFR Très Intensif
Visi : 
Plafond : 
>= 8 km
>= 3000ft
5 à 8 km
1000 à 3000 ft
1500m à 5 km
500 à 1000 ft
800 à 1500m
200 à 500 ft
< 800m
< 200 ft
Symboles :   Orages  Brouillard  Fortes neiges  Fortes précipitations  Vent > 20 kt
SIGMETs :   Divers  Orages  Givrage  Turbulence  Onde Orograph.  Cendres Volcan.







- Altitude de l'aérodrome : 52 ft
- Code IATA : IOM
- Voir les cartes d'approche


EGNS - Isle of Man

DERNIER METAR :
  • 211520Z 22019KT 9000 FEW003 BKN005 OVC012 13/12 Q0998 TEMPO 4000 -RADZ

METARs EXPIRÉS :
  • 211450Z 21015KT 3500 DZ FEW003 OVC004 13/12 Q0999 NOSIG
  • 211420Z 22017KT 4000 -DZ FEW004 BKN005 OVC022 13/12 Q1000 NOSIG
  • 211350Z 21018KT 9999 FEW004 OVC005 13/12 Q1000 TEMPO 8000 -RA
  • 211320Z 21020KT 9999 FEW004 OVC006 13/12 Q1000 TEMPO 8000 -RA
  • 211250Z 21019KT 9999 FEW005 BKN006 OVC025 13/12 Q1001 TEMPO 8000 -RA

TAF TAF EGNS
Valide du 21 à 15h jusqu'au 21 à 22h UTC


211400Z 2115/2122 22020KT 9999 SCT006 BKN015
TEMPO 2115/2120 4000 -RADZ BKN004
Pas de NOTAMs connus pour ce terrain.



MET'MAP, la Météo Aéronautique d'un coup d'oeil ! - Copyright ORBIFLY Décembre 2007 - Disclaimer

ORBIFLY MET'MAP TEAM :

Programmation & Développement : Alexandra Zaïnal
Conception & Développement : Baudouin d'Aumeries
Co-Programmation & Développement : Marc-Olivier Méhu
Soutien technique & logistique : Manuel Goepfert

Contact : metmap@orbifly.com




SOURCES & CREDITS :

   NOAA